03I weather

CLOSED Clarks Dream Strip
Circleville, Ohio, United States

Public forecast

Using degrees Fahrenheit for public forecast. Weather courtesy of forecast.io.

METAR (pilot weather report)

Closest report is Rickenbacker International Airport, 11.0 nm (20.4 km) NNE. Retrieved 2019/05/19 21:35 UTC (15 minutes ago):

KLCK 192135Z AUTO 22014G20KT 10SM -RA BKN080 OVC100 26/15 A2981 RMK AO2 T02550148

TAF (pilot weather forecast)

Closest forecast is Rickenbacker International Airport, 11.0 nm (20.4 km) NNE. Retrieved 2019/05/19 18:00 UTC (4 hours ago):

TAF KLCK 191741Z 1918/2018 21021G38KT P6SM SCT050 BKN120 FM192200 21018G30KT 6SM -SHRA VCTS SCT020 OVC040CB TEMPO 1922/1924 3SM SHRA OVC020 FM200100 22014G24KT P6SM VCSH SCT020 BKN040 FM200600 23012G20KT P6SM SCT040 BKN080 FM201000 24010G18KT P6SM BKN015 FM201600 26012G20KT P6SM BKN035